sensor_id;sensor_type;location;lat;lon;timestamp;temperature;humidity
26541;DHT22;14206;50.202;10.948;2023-06-22T00:00:03;20.10;96.60
26541;DHT22;14206;50.202;10.948;2023-06-22T00:02:37;20.10;96.60
26541;DHT22;14206;50.202;10.948;2023-06-22T00:05:05;20.10;96.60
26541;DHT22;14206;50.202;10.948;2023-06-22T00:07:33;20.10;96.60
26541;DHT22;14206;50.202;10.948;2023-06-22T00:10:00;20.10;96.60
26541;DHT22;14206;50.202;10.948;2023-06-22T00:12:27;20.10;96.60
26541;DHT22;14206;50.202;10.948;2023-06-22T00:14:54;20.10;96.60
26541;DHT22;14206;50.202;10.948;2023-06-22T00:17:21;20.10;96.60
26541;DHT22;14206;50.202;10.948;2023-06-22T00:20:03;20.10;96.60
26541;DHT22;14206;50.202;10.948;2023-06-22T00:22:32;20.00;96.60
26541;DHT22;14206;50.202;10.948;2023-06-22T00:25:07;20.00;96.60
26541;DHT22;14206;50.202;10.948;2023-06-22T00:27:34;20.00;96.60
26541;DHT22;14206;50.202;10.948;2023-06-22T00:30:02;20.00;96.60
26541;DHT22;14206;50.202;10.948;2023-06-22T00:32:29;20.00;96.60
26541;DHT22;14206;50.202;10.948;2023-06-22T00:34:56;20.00;96.60
26541;DHT22;14206;50.202;10.948;2023-06-22T00:37:23;20.00;96.60
26541;DHT22;14206;50.202;10.948;2023-06-22T00:39:52;20.00;96.60
26541;DHT22;14206;50.202;10.948;2023-06-22T00:42:20;20.00;96.60
26541;DHT22;14206;50.202;10.948;2023-06-22T00:44:47;20.00;96.60
26541;DHT22;14206;50.202;10.948;2023-06-22T00:47:16;19.90;96.60
26541;DHT22;14206;50.202;10.948;2023-06-22T00:49:44;19.90;96.60
26541;DHT22;14206;50.202;10.948;2023-06-22T00:52:13;19.80;96.60
26541;DHT22;14206;50.202;10.948;2023-06-22T00:54:41;19.80;96.60
26541;DHT22;14206;50.202;10.948;2023-06-22T00:57:13;19.80;96.60
26541;DHT22;14206;50.202;10.948;2023-06-22T00:59:46;19.80;96.60
26541;DHT22;14206;50.202;10.948;2023-06-22T01:02:14;19.80;96.60
26541;DHT22;14206;50.202;10.948;2023-06-22T01:04:41;19.80;96.60
26541;DHT22;14206;50.202;10.948;2023-06-22T01:12:45;19.80;96.60
26541;DHT22;14206;50.202;10.948;2023-06-22T01:15:21;19.80;96.60
26541;DHT22;14206;50.202;10.948;2023-06-22T01:17:52;19.80;96.60
26541;DHT22;14206;50.202;10.948;2023-06-22T01:20:20;19.80;96.60
26541;DHT22;14206;50.202;10.948;2023-06-22T01:23:07;19.80;96.60
26541;DHT22;14206;50.202;10.948;2023-06-22T01:28:50;19.90;96.60
26541;DHT22;14206;50.202;10.948;2023-06-22T01:31:20;19.90;96.60
26541;DHT22;14206;50.202;10.948;2023-06-22T01:33:51;19.80;96.60
26541;DHT22;14206;50.202;10.948;2023-06-22T01:36:20;19.80;96.60
26541;DHT22;14206;50.202;10.948;2023-06-22T01:38:48;19.80;96.60
26541;DHT22;14206;50.202;10.948;2023-06-22T01:41:19;19.80;96.60
26541;DHT22;14206;50.202;10.948;2023-06-22T01:43:47;19.70;96.60
26541;DHT22;14206;50.202;10.948;2023-06-22T01:46:15;19.60;96.60
26541;DHT22;14206;50.202;10.948;2023-06-22T01:48:44;19.60;96.60
26541;DHT22;14206;50.202;10.948;2023-06-22T01:51:11;19.60;96.60
26541;DHT22;14206;50.202;10.948;2023-06-22T01:53:39;19.60;96.60
26541;DHT22;14206;50.202;10.948;2023-06-22T01:56:05;19.60;96.60
26541;DHT22;14206;50.202;10.948;2023-06-22T01:58:34;19.60;96.60
26541;DHT22;14206;50.202;10.948;2023-06-22T02:01:09;19.60;96.60
26541;DHT22;14206;50.202;10.948;2023-06-22T02:04:06;19.60;96.60
26541;DHT22;14206;50.202;10.948;2023-06-22T02:06:39;19.60;96.60
26541;DHT22;14206;50.202;10.948;2023-06-22T02:09:14;19.50;96.60
26541;DHT22;14206;50.202;10.948;2023-06-22T02:11:44;19.50;96.60
26541;DHT22;14206;50.202;10.948;2023-06-22T02:14:13;19.50;96.60
26541;DHT22;14206;50.202;10.948;2023-06-22T02:16:40;19.50;96.60
26541;DHT22;14206;50.202;10.948;2023-06-22T02:19:08;19.50;96.60
26541;DHT22;14206;50.202;10.948;2023-06-22T02:21:35;19.50;96.60
26541;DHT22;14206;50.202;10.948;2023-06-22T02:24:02;19.50;96.60
26541;DHT22;14206;50.202;10.948;2023-06-22T02:26:30;19.50;96.60
26541;DHT22;14206;50.202;10.948;2023-06-22T02:28:57;19.50;96.60
26541;DHT22;14206;50.202;10.948;2023-06-22T02:31:24;19.50;96.60
26541;DHT22;14206;50.202;10.948;2023-06-22T02:33:58;19.60;96.60
26541;DHT22;14206;50.202;10.948;2023-06-22T02:36:26;19.60;96.60
26541;DHT22;14206;50.202;10.948;2023-06-22T02:38:55;19.60;96.60
26541;DHT22;14206;50.202;10.948;2023-06-22T02:41:25;19.70;96.60
26541;DHT22;14206;50.202;10.948;2023-06-22T02:43:52;19.80;96.60
26541;DHT22;14206;50.202;10.948;2023-06-22T02:46:19;19.90;96.60
26541;DHT22;14206;50.202;10.948;2023-06-22T02:48:47;19.90;96.60
26541;DHT22;14206;50.202;10.948;2023-06-22T02:51:14;19.90;96.60
26541;DHT22;14206;50.202;10.948;2023-06-22T02:53:41;19.90;96.60
26541;DHT22;14206;50.202;10.948;2023-06-22T02:56:13;19.90;96.60
26541;DHT22;14206;50.202;10.948;2023-06-22T02:58:40;20.00;96.60
26541;DHT22;14206;50.202;10.948;2023-06-22T03:01:10;20.00;96.60
26541;DHT22;14206;50.202;10.948;2023-06-22T03:03:41;20.00;96.60
26541;DHT22;14206;50.202;10.948;2023-06-22T03:06:08;20.00;96.60
26541;DHT22;14206;50.202;10.948;2023-06-22T03:08:41;19.90;96.60
26541;DHT22;14206;50.202;10.948;2023-06-22T03:11:09;19.90;96.60
26541;DHT22;14206;50.202;10.948;2023-06-22T03:13:36;19.90;96.60
26541;DHT22;14206;50.202;10.948;2023-06-22T03:16:03;19.80;96.60
26541;DHT22;14206;50.202;10.948;2023-06-22T03:18:30;19.80;96.60
26541;DHT22;14206;50.202;10.948;2023-06-22T03:20:57;19.90;96.60
26541;DHT22;14206;50.202;10.948;2023-06-22T03:23:23;20.00;96.60
26541;DHT22;14206;50.202;10.948;2023-06-22T03:25:51;20.10;96.60
26541;DHT22;14206;50.202;10.948;2023-06-22T03:28:17;20.10;96.60
26541;DHT22;14206;50.202;10.948;2023-06-22T03:30:45;20.20;96.60
26541;DHT22;14206;50.202;10.948;2023-06-22T03:33:13;20.20;96.60
26541;DHT22;14206;50.202;10.948;2023-06-22T03:35:40;20.20;96.60
26541;DHT22;14206;50.202;10.948;2023-06-22T03:38:07;20.20;96.60
26541;DHT22;14206;50.202;10.948;2023-06-22T03:40:34;20.20;96.60
26541;DHT22;14206;50.202;10.948;2023-06-22T03:43:01;20.20;96.60
26541;DHT22;14206;50.202;10.948;2023-06-22T03:45:29;20.20;96.60
26541;DHT22;14206;50.202;10.948;2023-06-22T03:47:57;20.00;96.60
26541;DHT22;14206;50.202;10.948;2023-06-22T03:50:24;19.90;96.60
26541;DHT22;14206;50.202;10.948;2023-06-22T03:52:59;19.80;96.60
26541;DHT22;14206;50.202;10.948;2023-06-22T03:55:27;19.60;96.60
26541;DHT22;14206;50.202;10.948;2023-06-22T03:57:55;19.60;96.60
26541;DHT22;14206;50.202;10.948;2023-06-22T04:00:24;19.50;96.60
26541;DHT22;14206;50.202;10.948;2023-06-22T04:02:51;19.60;96.60
26541;DHT22;14206;50.202;10.948;2023-06-22T04:05:18;19.60;96.60
26541;DHT22;14206;50.202;10.948;2023-06-22T04:07:46;19.70;96.60
26541;DHT22;14206;50.202;10.948;2023-06-22T04:10:13;19.80;96.60
26541;DHT22;14206;50.202;10.948;2023-06-22T04:12:51;19.80;96.60
26541;DHT22;14206;50.202;10.948;2023-06-22T04:15:18;20.00;96.60
26541;DHT22;14206;50.202;10.948;2023-06-22T04:17:45;20.00;96.60
26541;DHT22;14206;50.202;10.948;2023-06-22T04:20:12;20.10;96.60
26541;DHT22;14206;50.202;10.948;2023-06-22T04:22:39;20.20;96.60
26541;DHT22;14206;50.202;10.948;2023-06-22T04:25:06;20.30;96.60
26541;DHT22;14206;50.202;10.948;2023-06-22T04:27:36;20.40;96.60
26541;DHT22;14206;50.202;10.948;2023-06-22T04:30:07;20.50;96.60
26541;DHT22;14206;50.202;10.948;2023-06-22T04:32:35;20.70;96.60
26541;DHT22;14206;50.202;10.948;2023-06-22T04:35:06;20.80;96.60
26541;DHT22;14206;50.202;10.948;2023-06-22T04:37:34;21.00;96.60
26541;DHT22;14206;50.202;10.948;2023-06-22T04:40:00;21.10;96.60
26541;DHT22;14206;50.202;10.948;2023-06-22T04:42:28;21.30;96.60
26541;DHT22;14206;50.202;10.948;2023-06-22T04:44:55;21.40;96.60
26541;DHT22;14206;50.202;10.948;2023-06-22T04:47:22;21.50;96.60
26541;DHT22;14206;50.202;10.948;2023-06-22T04:49:48;21.60;96.60
26541;DHT22;14206;50.202;10.948;2023-06-22T04:52:16;21.70;96.60
26541;DHT22;14206;50.202;10.948;2023-06-22T04:54:46;21.70;96.60
26541;DHT22;14206;50.202;10.948;2023-06-22T04:57:22;21.70;96.60
26541;DHT22;14206;50.202;10.948;2023-06-22T04:59:59;21.70;96.60
26541;DHT22;14206;50.202;10.948;2023-06-22T05:02:39;21.80;96.60
26541;DHT22;14206;50.202;10.948;2023-06-22T05:05:07;21.80;96.60
26541;DHT22;14206;50.202;10.948;2023-06-22T05:07:34;21.90;96.60
26541;DHT22;14206;50.202;10.948;2023-06-22T05:10:04;22.00;96.60
26541;DHT22;14206;50.202;10.948;2023-06-22T05:12:32;22.10;96.60
26541;DHT22;14206;50.202;10.948;2023-06-22T05:14:59;22.20;96.60
26541;DHT22;14206;50.202;10.948;2023-06-22T05:17:26;22.40;96.60
26541;DHT22;14206;50.202;10.948;2023-06-22T05:19:53;22.50;96.60
26541;DHT22;14206;50.202;10.948;2023-06-22T05:22:20;22.70;95.60
26541;DHT22;14206;50.202;10.948;2023-06-22T05:24:47;22.90;95.60
26541;DHT22;14206;50.202;10.948;2023-06-22T05:27:14;23.10;95.50
26541;DHT22;14206;50.202;10.948;2023-06-22T05:29:41;23.30;95.20
26541;DHT22;14206;50.202;10.948;2023-06-22T05:32:09;23.60;94.40
26541;DHT22;14206;50.202;10.948;2023-06-22T05:34:37;23.80;93.10
26541;DHT22;14206;50.202;10.948;2023-06-22T05:37:05;24.10;92.00
26541;DHT22;14206;50.202;10.948;2023-06-22T05:39:32;24.40;90.90
26541;DHT22;14206;50.202;10.948;2023-06-22T05:41:59;24.90;90.20
26541;DHT22;14206;50.202;10.948;2023-06-22T05:44:25;25.30;88.60
26541;DHT22;14206;50.202;10.948;2023-06-22T05:46:53;25.80;86.30
26541;DHT22;14206;50.202;10.948;2023-06-22T05:49:19;26.20;85.60
26541;DHT22;14206;50.202;10.948;2023-06-22T05:51:48;26.60;84.40
26541;DHT22;14206;50.202;10.948;2023-06-22T05:54:15;26.90;82.60
26541;DHT22;14206;50.202;10.948;2023-06-22T05:56:44;27.20;82.30
26541;DHT22;14206;50.202;10.948;2023-06-22T05:59:11;27.70;81.20
26541;DHT22;14206;50.202;10.948;2023-06-22T06:01:38;28.30;78.80
26541;DHT22;14206;50.202;10.948;2023-06-22T06:04:07;29.00;77.80
26541;DHT22;14206;50.202;10.948;2023-06-22T06:06:36;29.50;74.40
26541;DHT22;14206;50.202;10.948;2023-06-22T06:09:04;30.00;75.30
26541;DHT22;14206;50.202;10.948;2023-06-22T06:11:31;30.60;73.40
26541;DHT22;14206;50.202;10.948;2023-06-22T06:13:58;31.10;72.30
26541;DHT22;14206;50.202;10.948;2023-06-22T06:16:25;31.60;71.10
26541;DHT22;14206;50.202;10.948;2023-06-22T06:18:52;32.10;69.80
26541;DHT22;14206;50.202;10.948;2023-06-22T06:21:21;32.70;68.00
26541;DHT22;14206;50.202;10.948;2023-06-22T06:23:48;33.10;66.70
26541;DHT22;14206;50.202;10.948;2023-06-22T06:26:15;33.40;65.60
26541;DHT22;14206;50.202;10.948;2023-06-22T06:28:43;33.70;66.00
26541;DHT22;14206;50.202;10.948;2023-06-22T06:31:10;34.00;64.80
26541;DHT22;14206;50.202;10.948;2023-06-22T06:33:39;34.20;63.40
26541;DHT22;14206;50.202;10.948;2023-06-22T06:36:06;34.50;63.20
26541;DHT22;14206;50.202;10.948;2023-06-22T06:38:35;34.70;62.90
26541;DHT22;14206;50.202;10.948;2023-06-22T06:41:02;34.90;61.80
26541;DHT22;14206;50.202;10.948;2023-06-22T06:43:29;35.00;62.00
26541;DHT22;14206;50.202;10.948;2023-06-22T06:45:56;35.10;62.10
26541;DHT22;14206;50.202;10.948;2023-06-22T06:48:23;35.20;61.70
26541;DHT22;14206;50.202;10.948;2023-06-22T06:50:49;35.30;61.50
26541;DHT22;14206;50.202;10.948;2023-06-22T06:53:16;35.40;60.10
26541;DHT22;14206;50.202;10.948;2023-06-22T06:55:43;35.50;59.70
26541;DHT22;14206;50.202;10.948;2023-06-22T06:58:12;35.60;59.30
26541;DHT22;14206;50.202;10.948;2023-06-22T07:00:40;35.80;59.60
26541;DHT22;14206;50.202;10.948;2023-06-22T07:03:09;35.90;58.90
26541;DHT22;14206;50.202;10.948;2023-06-22T07:05:36;36.20;57.40
26541;DHT22;14206;50.202;10.948;2023-06-22T07:08:03;36.40;57.90
26541;DHT22;14206;50.202;10.948;2023-06-22T07:10:30;36.70;56.20
26541;DHT22;14206;50.202;10.948;2023-06-22T07:12:58;36.90;55.70
26541;DHT22;14206;50.202;10.948;2023-06-22T07:15:25;37.10;55.80
26541;DHT22;14206;50.202;10.948;2023-06-22T07:17:52;37.40;55.60
26541;DHT22;14206;50.202;10.948;2023-06-22T07:20:21;37.70;53.90
26541;DHT22;14206;50.202;10.948;2023-06-22T07:22:48;38.10;53.10
26541;DHT22;14206;50.202;10.948;2023-06-22T07:25:15;38.30;51.10
26541;DHT22;14206;50.202;10.948;2023-06-22T07:27:46;38.40;51.40
26541;DHT22;14206;50.202;10.948;2023-06-22T07:30:14;38.30;49.80
26541;DHT22;14206;50.202;10.948;2023-06-22T07:32:41;38.30;51.00
26541;DHT22;14206;50.202;10.948;2023-06-22T07:35:08;38.20;50.00
26541;DHT22;14206;50.202;10.948;2023-06-22T07:37:35;37.90;50.50
26541;DHT22;14206;50.202;10.948;2023-06-22T07:40:03;37.60;50.70
26541;DHT22;14206;50.202;10.948;2023-06-22T07:42:33;37.20;51.50
26541;DHT22;14206;50.202;10.948;2023-06-22T07:45:00;36.90;51.10
26541;DHT22;14206;50.202;10.948;2023-06-22T07:47:27;36.50;52.20
26541;DHT22;14206;50.202;10.948;2023-06-22T07:49:57;36.50;52.40
26541;DHT22;14206;50.202;10.948;2023-06-22T07:52:25;36.70;52.70
26541;DHT22;14206;50.202;10.948;2023-06-22T07:54:54;36.90;52.70
26541;DHT22;14206;50.202;10.948;2023-06-22T07:57:21;37.40;51.70
26541;DHT22;14206;50.202;10.948;2023-06-22T07:59:48;37.80;50.90
26541;DHT22;14206;50.202;10.948;2023-06-22T08:02:15;38.20;50.30
26541;DHT22;14206;50.202;10.948;2023-06-22T08:04:42;38.60;49.20
26541;DHT22;14206;50.202;10.948;2023-06-22T08:07:09;39.10;49.50
26541;DHT22;14206;50.202;10.948;2023-06-22T08:09:37;39.60;47.50
26541;DHT22;14206;50.202;10.948;2023-06-22T08:12:04;39.80;46.30
26541;DHT22;14206;50.202;10.948;2023-06-22T08:14:31;40.10;47.20
26541;DHT22;14206;50.202;10.948;2023-06-22T08:16:58;40.50;45.20
26541;DHT22;14206;50.202;10.948;2023-06-22T08:19:25;40.80;45.80
26541;DHT22;14206;50.202;10.948;2023-06-22T08:21:52;41.30;43.50
26541;DHT22;14206;50.202;10.948;2023-06-22T08:24:19;41.40;43.90
26541;DHT22;14206;50.202;10.948;2023-06-22T08:26:46;41.50;44.30
26541;DHT22;14206;50.202;10.948;2023-06-22T08:29:13;41.70;43.00
26541;DHT22;14206;50.202;10.948;2023-06-22T08:31:41;41.60;42.80
26541;DHT22;14206;50.202;10.948;2023-06-22T08:34:08;41.80;43.00
26541;DHT22;14206;50.202;10.948;2023-06-22T08:36:43;42.10;42.40
26541;DHT22;14206;50.202;10.948;2023-06-22T08:39:19;42.40;43.40
26541;DHT22;14206;50.202;10.948;2023-06-22T08:41:47;42.50;42.20
26541;DHT22;14206;50.202;10.948;2023-06-22T08:44:18;42.50;41.30
26541;DHT22;14206;50.202;10.948;2023-06-22T08:46:45;42.60;41.50
26541;DHT22;14206;50.202;10.948;2023-06-22T08:49:14;42.40;40.90
26541;DHT22;14206;50.202;10.948;2023-06-22T08:51:41;42.20;40.70
26541;DHT22;14206;50.202;10.948;2023-06-22T08:54:08;41.90;42.10
26541;DHT22;14206;50.202;10.948;2023-06-22T08:56:35;42.30;42.10
26541;DHT22;14206;50.202;10.948;2023-06-22T08:59:03;42.20;41.20
26541;DHT22;14206;50.202;10.948;2023-06-22T09:01:30;41.90;41.60
26541;DHT22;14206;50.202;10.948;2023-06-22T09:03:57;41.90;41.30
26541;DHT22;14206;50.202;10.948;2023-06-22T09:06:24;42.10;41.30
26541;DHT22;14206;50.202;10.948;2023-06-22T09:08:51;42.20;41.20
26541;DHT22;14206;50.202;10.948;2023-06-22T09:11:18;42.40;40.90
26541;DHT22;14206;50.202;10.948;2023-06-22T09:13:45;42.30;41.00
26541;DHT22;14206;50.202;10.948;2023-06-22T09:16:13;42.40;40.90
26541;DHT22;14206;50.202;10.948;2023-06-22T09:18:40;42.30;40.90
26541;DHT22;14206;50.202;10.948;2023-06-22T09:21:07;42.40;40.80
26541;DHT22;14206;50.202;10.948;2023-06-22T09:23:35;42.50;41.60
26541;DHT22;14206;50.202;10.948;2023-06-22T09:26:02;42.80;41.40
26541;DHT22;14206;50.202;10.948;2023-06-22T09:28:29;42.90;40.80
26541;DHT22;14206;50.202;10.948;2023-06-22T09:30:56;43.00;40.40
26541;DHT22;14206;50.202;10.948;2023-06-22T09:33:26;43.10;40.50
26541;DHT22;14206;50.202;10.948;2023-06-22T09:35:53;43.20;40.50
26541;DHT22;14206;50.202;10.948;2023-06-22T09:38:20;43.10;40.30
26541;DHT22;14206;50.202;10.948;2023-06-22T09:40:46;42.90;40.10
26541;DHT22;14206;50.202;10.948;2023-06-22T09:43:13;43.00;41.30
26541;DHT22;14206;50.202;10.948;2023-06-22T09:45:41;43.40;40.80
26541;DHT22;14206;50.202;10.948;2023-06-22T09:48:09;43.80;40.00
26541;DHT22;14206;50.202;10.948;2023-06-22T09:50:39;44.00;39.50
26541;DHT22;14206;50.202;10.948;2023-06-22T09:53:12;44.20;39.40
26541;DHT22;14206;50.202;10.948;2023-06-22T09:55:39;44.30;37.60
26541;DHT22;14206;50.202;10.948;2023-06-22T09:58:06;44.10;38.10
26541;DHT22;14206;50.202;10.948;2023-06-22T10:00:33;43.90;38.80
26541;DHT22;14206;50.202;10.948;2023-06-22T10:03:00;44.00;40.00
26541;DHT22;14206;50.202;10.948;2023-06-22T10:05:27;44.30;39.30
26541;DHT22;14206;50.202;10.948;2023-06-22T10:07:54;44.40;39.00
26541;DHT22;14206;50.202;10.948;2023-06-22T10:10:21;44.30;38.80
26541;DHT22;14206;50.202;10.948;2023-06-22T10:12:56;44.60;38.80
26541;DHT22;14206;50.202;10.948;2023-06-22T10:15:24;44.70;37.80
26541;DHT22;14206;50.202;10.948;2023-06-22T10:17:54;44.70;37.40
26541;DHT22;14206;50.202;10.948;2023-06-22T10:20:21;44.30;37.80
26541;DHT22;14206;50.202;10.948;2023-06-22T10:22:48;44.20;38.10
26541;DHT22;14206;50.202;10.948;2023-06-22T10:25:15;44.10;37.70
26541;DHT22;14206;50.202;10.948;2023-06-22T10:27:42;44.30;38.80
26541;DHT22;14206;50.202;10.948;2023-06-22T10:30:11;44.30;38.60
26541;DHT22;14206;50.202;10.948;2023-06-22T10:32:42;44.50;38.70
26541;DHT22;14206;50.202;10.948;2023-06-22T10:35:10;44.70;37.60
26541;DHT22;14206;50.202;10.948;2023-06-22T10:37:40;44.80;37.40
26541;DHT22;14206;50.202;10.948;2023-06-22T10:40:07;44.70;37.40
26541;DHT22;14206;50.202;10.948;2023-06-22T10:42:35;44.50;37.90
26541;DHT22;14206;50.202;10.948;2023-06-22T10:45:02;44.10;37.70
26541;DHT22;14206;50.202;10.948;2023-06-22T10:47:29;43.90;39.40
26541;DHT22;14206;50.202;10.948;2023-06-22T10:49:56;43.50;38.70
26541;DHT22;14206;50.202;10.948;2023-06-22T10:52:23;42.80;39.10
26541;DHT22;14206;50.202;10.948;2023-06-22T10:54:50;42.60;39.40
26541;DHT22;14206;50.202;10.948;2023-06-22T10:57:18;42.90;39.40
26541;DHT22;14206;50.202;10.948;2023-06-22T10:59:45;43.40;40.20
26541;DHT22;14206;50.202;10.948;2023-06-22T11:02:12;43.70;39.10
26541;DHT22;14206;50.202;10.948;2023-06-22T11:04:41;43.70;38.00
26541;DHT22;14206;50.202;10.948;2023-06-22T11:07:09;43.50;38.10
26541;DHT22;14206;50.202;10.948;2023-06-22T11:09:36;43.70;38.70
26541;DHT22;14206;50.202;10.948;2023-06-22T11:12:07;44.10;39.50
26541;DHT22;14206;50.202;10.948;2023-06-22T11:14:34;44.30;37.50
26541;DHT22;14206;50.202;10.948;2023-06-22T11:17:01;44.30;37.50
26541;DHT22;14206;50.202;10.948;2023-06-22T11:19:28;44.50;37.60
26541;DHT22;14206;50.202;10.948;2023-06-22T11:21:55;44.60;37.50
26541;DHT22;14206;50.202;10.948;2023-06-22T11:24:22;44.80;36.30
26541;DHT22;14206;50.202;10.948;2023-06-22T11:26:49;44.90;37.30
26541;DHT22;14206;50.202;10.948;2023-06-22T11:29:16;44.90;36.30
26541;DHT22;14206;50.202;10.948;2023-06-22T11:32:02;44.80;36.80
26541;DHT22;14206;50.202;10.948;2023-06-22T11:34:29;44.90;36.60
26541;DHT22;14206;50.202;10.948;2023-06-22T11:36:56;44.70;36.60
26541;DHT22;14206;50.202;10.948;2023-06-22T11:39:23;44.20;38.50
26541;DHT22;14206;50.202;10.948;2023-06-22T11:42:07;43.50;38.10
26541;DHT22;14206;50.202;10.948;2023-06-22T11:44:34;42.30;39.50
26541;DHT22;14206;50.202;10.948;2023-06-22T11:47:01;41.40;40.10
26541;DHT22;14206;50.202;10.948;2023-06-22T11:49:31;40.80;41.40
26541;DHT22;14206;50.202;10.948;2023-06-22T11:51:58;40.70;42.50
26541;DHT22;14206;50.202;10.948;2023-06-22T11:54:24;40.90;43.60
26541;DHT22;14206;50.202;10.948;2023-06-22T11:56:51;41.50;42.20
26541;DHT22;14206;50.202;10.948;2023-06-22T11:59:18;41.80;40.50
26541;DHT22;14206;50.202;10.948;2023-06-22T12:01:46;42.10;40.50
26541;DHT22;14206;50.202;10.948;2023-06-22T12:04:13;42.20;41.20
26541;DHT22;14206;50.202;10.948;2023-06-22T12:06:40;42.20;40.30
26541;DHT22;14206;50.202;10.948;2023-06-22T12:09:10;41.90;41.00
26541;DHT22;14206;50.202;10.948;2023-06-22T12:11:37;41.20;41.50
26541;DHT22;14206;50.202;10.948;2023-06-22T12:14:04;41.20;41.30
26541;DHT22;14206;50.202;10.948;2023-06-22T12:16:31;41.10;40.70
26541;DHT22;14206;50.202;10.948;2023-06-22T12:18:58;40.80;40.80
26541;DHT22;14206;50.202;10.948;2023-06-22T12:21:25;40.30;41.50
26541;DHT22;14206;50.202;10.948;2023-06-22T12:23:52;40.60;41.60
26541;DHT22;14206;50.202;10.948;2023-06-22T12:26:19;41.20;41.50
26541;DHT22;14206;50.202;10.948;2023-06-22T12:28:46;41.50;41.00
26541;DHT22;14206;50.202;10.948;2023-06-22T12:31:14;41.30;40.00
26541;DHT22;14206;50.202;10.948;2023-06-22T12:33:41;41.10;40.90
26541;DHT22;14206;50.202;10.948;2023-06-22T12:36:08;40.90;40.00
26541;DHT22;14206;50.202;10.948;2023-06-22T12:38:35;40.50;41.20
26541;DHT22;14206;50.202;10.948;2023-06-22T12:41:02;40.00;43.00
26541;DHT22;14206;50.202;10.948;2023-06-22T12:43:29;39.60;42.50
26541;DHT22;14206;50.202;10.948;2023-06-22T12:45:56;39.00;42.80
26541;DHT22;14206;50.202;10.948;2023-06-22T12:48:24;38.50;44.20
26541;DHT22;14206;50.202;10.948;2023-06-22T12:50:51;38.20;44.70
26541;DHT22;14206;50.202;10.948;2023-06-22T12:53:20;38.00;44.70
26541;DHT22;14206;50.202;10.948;2023-06-22T12:55:49;37.70;45.10
26541;DHT22;14206;50.202;10.948;2023-06-22T12:58:16;37.40;46.20
26541;DHT22;14206;50.202;10.948;2023-06-22T13:00:43;37.30;45.20
26541;DHT22;14206;50.202;10.948;2023-06-22T13:03:10;37.10;46.40
26541;DHT22;14206;50.202;10.948;2023-06-22T13:05:37;37.10;47.20
26541;DHT22;14206;50.202;10.948;2023-06-22T13:08:05;37.10;46.30
26541;DHT22;14206;50.202;10.948;2023-06-22T13:10:32;37.00;46.20
26541;DHT22;14206;50.202;10.948;2023-06-22T13:12:59;36.80;45.80
26541;DHT22;14206;50.202;10.948;2023-06-22T13:15:28;36.60;45.10
26541;DHT22;14206;50.202;10.948;2023-06-22T13:17:57;36.40;45.00
26541;DHT22;14206;50.202;10.948;2023-06-22T13:20:24;36.10;45.80
26541;DHT22;14206;50.202;10.948;2023-06-22T13:22:51;35.90;45.10
26541;DHT22;14206;50.202;10.948;2023-06-22T13:25:17;35.70;46.10
26541;DHT22;14206;50.202;10.948;2023-06-22T13:27:46;35.60;46.70
26541;DHT22;14206;50.202;10.948;2023-06-22T13:30:14;35.60;46.80
26541;DHT22;14206;50.202;10.948;2023-06-22T13:32:41;35.60;47.60
26541;DHT22;14206;50.202;10.948;2023-06-22T13:35:13;35.60;46.70
26541;DHT22;14206;50.202;10.948;2023-06-22T13:37:40;35.50;46.80
26541;DHT22;14206;50.202;10.948;2023-06-22T13:40:08;35.50;46.70
26541;DHT22;14206;50.202;10.948;2023-06-22T13:42:35;35.50;47.10
26541;DHT22;14206;50.202;10.948;2023-06-22T13:45:02;35.60;46.40
26541;DHT22;14206;50.202;10.948;2023-06-22T13:47:30;35.50;46.70
26541;DHT22;14206;50.202;10.948;2023-06-22T13:49:58;35.40;46.70
26541;DHT22;14206;50.202;10.948;2023-06-22T13:52:25;35.30;47.10
26541;DHT22;14206;50.202;10.948;2023-06-22T13:54:52;35.30;47.50
26541;DHT22;14206;50.202;10.948;2023-06-22T13:57:19;35.30;48.00
26541;DHT22;14206;50.202;10.948;2023-06-22T13:59:46;35.40;47.70
26541;DHT22;14206;50.202;10.948;2023-06-22T14:02:13;35.40;47.80
26541;DHT22;14206;50.202;10.948;2023-06-22T14:04:40;35.30;47.70
26541;DHT22;14206;50.202;10.948;2023-06-22T14:07:07;35.20;48.10
26541;DHT22;14206;50.202;10.948;2023-06-22T14:09:35;35.20;47.60
26541;DHT22;14206;50.202;10.948;2023-06-22T14:12:05;35.30;48.30
26541;DHT22;14206;50.202;10.948;2023-06-22T14:14:33;35.30;47.90
26541;DHT22;14206;50.202;10.948;2023-06-22T14:17:00;35.20;48.20
26541;DHT22;14206;50.202;10.948;2023-06-22T14:19:27;35.20;47.70
26541;DHT22;14206;50.202;10.948;2023-06-22T14:21:54;35.20;47.70
26541;DHT22;14206;50.202;10.948;2023-06-22T14:24:21;35.20;47.50
26541;DHT22;14206;50.202;10.948;2023-06-22T14:26:51;35.20;47.70
26541;DHT22;14206;50.202;10.948;2023-06-22T14:29:18;35.30;48.10
26541;DHT22;14206;50.202;10.948;2023-06-22T14:31:46;35.20;47.50
26541;DHT22;14206;50.202;10.948;2023-06-22T14:34:14;35.20;47.90
26541;DHT22;14206;50.202;10.948;2023-06-22T14:36:44;35.20;47.10
26541;DHT22;14206;50.202;10.948;2023-06-22T14:39:11;35.20;47.90
26541;DHT22;14206;50.202;10.948;2023-06-22T14:41:38;35.20;48.10
26541;DHT22;14206;50.202;10.948;2023-06-22T14:44:05;35.30;48.10
26541;DHT22;14206;50.202;10.948;2023-06-22T14:46:32;35.30;48.20
26541;DHT22;14206;50.202;10.948;2023-06-22T14:48:59;35.20;48.40
26541;DHT22;14206;50.202;10.948;2023-06-22T14:51:26;35.10;48.80
26541;DHT22;14206;50.202;10.948;2023-06-22T14:53:53;35.10;48.20
26541;DHT22;14206;50.202;10.948;2023-06-22T14:56:20;35.00;47.90
26541;DHT22;14206;50.202;10.948;2023-06-22T14:58:47;35.10;48.20
26541;DHT22;14206;50.202;10.948;2023-06-22T15:01:16;35.10;48.00
26541;DHT22;14206;50.202;10.948;2023-06-22T15:03:44;35.20;48.30
26541;DHT22;14206;50.202;10.948;2023-06-22T15:06:11;35.20;48.90
26541;DHT22;14206;50.202;10.948;2023-06-22T15:08:42;35.20;48.80
26541;DHT22;14206;50.202;10.948;2023-06-22T15:11:09;35.10;48.30
26541;DHT22;14206;50.202;10.948;2023-06-22T15:13:39;34.90;48.50
26541;DHT22;14206;50.202;10.948;2023-06-22T15:16:06;34.70;49.00
26541;DHT22;14206;50.202;10.948;2023-06-22T15:18:34;34.60;49.60
26541;DHT22;14206;50.202;10.948;2023-06-22T15:21:03;34.40;49.70
26541;DHT22;14206;50.202;10.948;2023-06-22T15:23:30;34.30;50.30
26541;DHT22;14206;50.202;10.948;2023-06-22T15:25:59;34.10;50.80
26541;DHT22;14206;50.202;10.948;2023-06-22T15:28:28;34.10;51.30